Time;durP1;ratioP1;P1;durP2;ratioP2;P2;SDS_P1;SDS_P2;PMS_P1;PMS_P2;Temp;Humidity;BMP_temperature;BMP_pressure;BME280_temperature;BME280_humidity;BME280_pressure;Samples;Min_cycle;Max_cycle;Signal;HPM_P1;HPM_P2
2023/02/26 00:00:13;;;;;;;15.93;8.53;;;3.10;99.90;;;;;;4987979;28;20255;-75
2023/02/26 00:02:44;;;;;;;6.20;3.93;;;2.90;99.90;;;;;;4988906;28;20286;-74
2023/02/26 00:05:11;;;;;;;4.03;2.67;;;2.90;99.90;;;;;;4977382;28;20446;-75
2023/02/26 00:07:37;;;;;;;3.80;2.90;;;2.80;99.90;;;;;;4988099;28;20447;-75
2023/02/26 00:10:05;;;;;;;3.50;2.87;;;2.70;99.90;;;;;;4987293;28;20463;-73
2023/02/26 00:12:31;;;;;;;4.27;3.33;;;2.60;99.90;;;;;;4988213;28;20526;-75
2023/02/26 00:14:57;;;;;;;3.63;2.50;;;2.60;99.90;;;;;;4988035;28;20480;-73
2023/02/26 00:17:35;;;;;;;6.03;3.00;;;2.50;99.90;;;;;;4992009;28;20441;-74
2023/02/26 00:20:01;;;;;;;4.00;2.97;;;2.60;99.90;;;;;;4992052;28;20181;-73
2023/02/26 00:22:27;;;;;;;5.50;3.57;;;2.60;99.90;;;;;;4990312;28;21176;-73
2023/02/26 00:24:52;;;;;;;2.83;2.37;;;2.50;99.90;;;;;;4988722;28;20446;-74
2023/02/26 00:27:18;;;;;;;3.30;3.00;;;2.30;99.90;;;;;;4989542;28;20812;-74
2023/02/26 00:29:44;;;;;;;3.50;2.90;;;2.40;99.90;;;;;;4989938;28;20228;-74
2023/02/26 00:32:11;;;;;;;4.30;3.33;;;2.40;99.90;;;;;;4990627;28;20496;-73
2023/02/26 00:34:37;;;;;;;3.47;3.00;;;2.30;99.90;;;;;;4979375;28;20422;-74
2023/02/26 00:37:27;;;;;;;3.40;2.90;;;2.30;99.90;;;;;;4991961;28;20412;-73
2023/02/26 00:40:05;;;;;;;3.83;2.73;;;2.10;99.90;;;;;;4990358;28;20434;-73
2023/02/26 00:42:31;;;;;;;5.73;2.80;;;2.20;99.90;;;;;;4994819;28;20503;-74
2023/02/26 00:44:57;;;;;;;4.30;3.00;;;2.10;99.90;;;;;;4988564;28;20443;-73
2023/02/26 00:47:39;;;;;;;5.27;3.30;;;2.10;99.90;;;;;;4987425;28;20431;-74
2023/02/26 00:50:23;;;;;;;4.40;2.43;;;2.30;99.90;;;;;;4997714;28;20275;-76
2023/02/26 00:53:02;;;;;;;4.00;3.00;;;2.40;99.90;;;;;;5000149;28;20438;-75
2023/02/26 00:55:28;;;;;;;7.07;3.37;;;2.50;99.90;;;;;;4999520;28;20490;-76
2023/02/26 00:57:53;;;;;;;4.70;3.27;;;2.50;99.90;;;;;;4999512;28;20423;-74
2023/02/26 01:00:19;;;;;;;3.07;2.60;;;2.60;99.90;;;;;;4999667;28;20426;-75
2023/02/26 01:02:45;;;;;;;6.50;3.27;;;2.60;99.90;;;;;;5001281;28;20308;-75
2023/02/26 01:05:11;;;;;;;6.00;3.50;;;2.50;99.90;;;;;;4998241;28;20610;-74
2023/02/26 01:08:23;;;;;;;4.77;3.23;;;2.40;99.90;;;;;;4990852;28;20173;-74
2023/02/26 01:10:48;;;;;;;4.47;3.20;;;2.30;99.90;;;;;;4981293;28;20480;-75
2023/02/26 01:13:14;;;;;;;4.13;2.97;;;2.30;99.90;;;;;;4991928;28;20440;-74
2023/02/26 01:15:45;;;;;;;3.90;2.90;;;2.20;99.90;;;;;;4991751;28;20169;-75
2023/02/26 01:18:23;;;;;;;7.03;3.80;;;2.10;99.90;;;;;;4989917;28;20176;-75
2023/02/26 01:20:55;;;;;;;7.47;4.10;;;2.00;99.90;;;;;;4990795;28;20930;-74
2023/02/26 01:23:26;;;;;;;11.90;3.33;;;1.80;99.90;;;;;;4990963;28;20443;-75
2023/02/26 01:26:02;;;;;;;6.97;3.17;;;1.90;99.90;;;;;;4996591;28;20408;-75
2023/02/26 01:28:28;;;;;;;3.73;2.80;;;1.90;99.90;;;;;;4991669;28;20443;-75
2023/02/26 01:31:01;;;;;;;4.20;3.77;;;2.10;99.90;;;;;;4980679;28;20432;-74
2023/02/26 01:34:11;;;;;;;4.57;3.03;;;2.10;99.90;;;;;;4982639;28;20462;-75
2023/02/26 01:36:46;;;;;;;4.90;2.97;;;2.20;99.90;;;;;;4955685;28;20506;-74
2023/02/26 01:39:28;;;;;;;4.20;3.00;;;2.20;99.90;;;;;;4995306;28;20630;-74
2023/02/26 01:41:57;;;;;;;6.67;3.17;;;2.10;99.90;;;;;;4994688;28;20522;-75
2023/02/26 01:44:41;;;;;;;3.70;3.03;;;2.00;99.90;;;;;;4994666;28;20443;-73
2023/02/26 01:47:25;;;;;;;5.50;3.10;;;1.90;99.90;;;;;;4991935;28;20785;-74
2023/02/26 01:49:51;;;;;;;6.83;4.20;;;1.90;99.90;;;;;;4984108;28;20419;-73
2023/02/26 01:52:48;;;;;;;6.33;4.00;;;1.80;99.90;;;;;;4986525;28;20428;-74
2023/02/26 01:55:15;;;;;;;3.70;3.30;;;1.90;99.90;;;;;;4971970;28;20421;-74
2023/02/26 01:57:41;;;;;;;4.90;3.60;;;1.60;99.90;;;;;;4988408;28;20434;-74
2023/02/26 02:00:08;;;;;;;7.30;5.00;;;1.40;99.90;;;;;;4987455;28;21286;-74
2023/02/26 02:02:33;;;;;;;3.63;2.87;;;1.50;99.90;;;;;;4987920;28;20968;-74
2023/02/26 02:05:05;;;;;;;3.60;2.90;;;1.50;99.90;;;;;;4984089;28;20419;-74
2023/02/26 02:07:31;;;;;;;4.83;3.13;;;1.40;99.90;;;;;;4988640;28;20699;-75
2023/02/26 02:09:57;;;;;;;5.93;3.00;;;1.50;99.90;;;;;;4988755;28;20430;-75
2023/02/26 02:12:41;;;;;;;3.50;2.90;;;1.30;99.90;;;;;;4988745;28;20180;-75
2023/02/26 02:15:24;;;;;;;3.90;3.50;;;1.50;99.90;;;;;;4980021;28;20663;-74
2023/02/26 02:17:54;;;;;;;4.00;3.00;;;1.60;99.90;;;;;;4987179;28;20423;-75
2023/02/26 02:20:32;;;;;;;4.67;3.17;;;1.50;99.90;;;;;;4974814;28;20993;-76
2023/02/26 02:23:14;;;;;;;6.10;3.27;;;1.60;99.90;;;;;;4976431;28;20482;-73
2023/02/26 02:25:58;;;;;;;6.70;3.63;;;1.70;99.90;;;;;;4987804;28;20407;-75
2023/02/26 02:28:58;;;;;;;22.30;9.63;;;1.70;99.90;;;;;;4988096;28;20753;-73
2023/02/26 02:31:43;;;;;;;24.13;11.20;;;1.60;99.90;;;;;;4975582;28;20459;-72
2023/02/26 02:34:22;;;;;;;13.07;6.73;;;1.70;99.90;;;;;;4987372;28;20443;-74
2023/02/26 02:37:01;;;;;;;4.20;3.63;;;1.60;99.90;;;;;;4988089;28;20414;-74
2023/02/26 02:39:40;;;;;;;8.67;4.20;;;1.50;99.90;;;;;;4987455;28;20478;-74
2023/02/26 02:42:19;;;;;;;4.63;3.00;;;1.50;99.90;;;;;;4987421;28;20464;-75
2023/02/26 02:44:52;;;;;;;7.20;2.70;;;1.60;99.90;;;;;;5001476;22;20503;-71
2023/02/26 02:47:19;;;;;;;3.40;3.10;;;1.50;99.90;;;;;;4985383;28;20404;-75
2023/02/26 02:50:12;;;;;;;3.40;2.80;;;1.70;99.90;;;;;;4985085;28;20426;-70
2023/02/26 02:52:44;;;;;;;5.60;3.50;;;1.70;99.90;;;;;;4984780;28;20434;-73
2023/02/26 02:55:35;;;;;;;3.90;3.10;;;1.70;99.90;;;;;;4984784;28;20557;-74
2023/02/26 02:58:05;;;;;;;2.90;2.33;;;1.80;99.90;;;;;;4976119;28;20877;-71
2023/02/26 03:00:37;;;;;;;3.50;2.83;;;1.80;99.90;;;;;;4984855;28;21039;-72
2023/02/26 03:03:33;;;;;;;5.63;3.60;;;1.70;99.90;;;;;;4984199;28;20788;-75
2023/02/26 03:05:58;;;;;;;8.90;3.20;;;1.80;99.90;;;;;;4984131;28;20833;-71
2023/02/26 03:08:28;;;;;;;4.10;3.00;;;1.50;99.90;;;;;;4984668;28;20420;-71
2023/02/26 03:10:54;;;;;;;3.43;2.67;;;1.70;99.90;;;;;;4968431;28;20537;-70
2023/02/26 03:13:23;;;;;;;4.60;3.77;;;1.80;99.90;;;;;;4984053;28;20438;-71
2023/02/26 03:16:09;;;;;;;5.90;3.20;;;1.80;99.90;;;;;;4984355;28;20423;-71
2023/02/26 03:19:26;;;;;;;2.90;2.70;;;1.60;99.90;;;;;;4984344;28;20937;-71
2023/02/26 03:22:29;;;;;;;3.60;3.10;;;1.60;99.90;;;;;;4949769;28;20424;-69
2023/02/26 03:24:57;;;;;;;3.50;2.90;;;1.40;99.90;;;;;;4984139;28;20525;-70
2023/02/26 03:27:31;;;;;;;4.13;3.50;;;1.40;99.90;;;;;;4984370;28;20791;-71
2023/02/26 03:30:20;;;;;;;4.07;2.90;;;1.40;99.90;;;;;;4984552;28;20432;-75
2023/02/26 03:33:18;;;;;;;3.67;3.33;;;1.40;99.90;;;;;;4984114;28;20763;-74
2023/02/26 03:36:03;;;;;;;3.90;2.67;;;1.50;99.90;;;;;;4983698;28;20477;-71
2023/02/26 03:38:31;;;;;;;4.57;2.80;;;1.40;99.90;;;;;;4984222;28;20419;-70
2023/02/26 03:41:09;;;;;;;7.27;2.97;;;1.40;99.90;;;;;;4969934;28;20448;-71
2023/02/26 03:43:47;;;;;;;4.30;3.50;;;1.20;99.90;;;;;;4983940;28;20447;-72
2023/02/26 03:46:20;;;;;;;3.70;2.70;;;1.20;99.90;;;;;;4983992;28;21050;-71
2023/02/26 03:48:50;;;;;;;6.43;3.50;;;1.40;99.90;;;;;;4984192;28;20445;-71
2023/02/26 03:51:17;;;;;;;5.70;3.60;;;1.50;99.90;;;;;;4976936;28;20502;-74
2023/02/26 03:54:03;;;;;;;4.80;2.67;;;1.60;99.90;;;;;;4966111;28;20611;-71
2023/02/26 03:56:34;;;;;;;3.73;3.13;;;1.70;99.90;;;;;;4983907;28;20831;-71
2023/02/26 03:58:59;;;;;;;3.67;2.70;;;1.80;99.90;;;;;;4984059;28;20523;-71
2023/02/26 04:01:32;;;;;;;4.70;3.13;;;1.80;99.90;;;;;;4983401;28;20415;-70
2023/02/26 04:04:00;;;;;;;3.80;2.83;;;1.80;99.90;;;;;;4983754;28;20204;-71
2023/02/26 04:06:26;;;;;;;3.67;3.00;;;1.80;99.90;;;;;;4983034;28;20419;-73
2023/02/26 04:08:52;;;;;;;4.63;3.73;;;1.80;99.90;;;;;;4983518;28;20485;-72
2023/02/26 04:11:20;;;;;;;3.10;2.60;;;1.70;99.90;;;;;;4983597;28;20424;-70
2023/02/26 04:13:46;;;;;;;5.07;2.97;;;1.70;99.90;;;;;;4982141;28;20451;-74
2023/02/26 04:16:13;;;;;;;5.73;3.90;;;1.70;99.90;;;;;;4983756;28;20424;-71
2023/02/26 04:18:39;;;;;;;5.10;3.13;;;1.60;99.90;;;;;;4983775;28;20451;-71
2023/02/26 04:21:05;;;;;;;3.93;3.50;;;1.60;99.90;;;;;;4983995;28;20463;-71
2023/02/26 04:23:31;;;;;;;4.10;3.07;;;1.60;99.90;;;;;;4972703;28;20474;-70
2023/02/26 04:25:57;;;;;;;6.10;3.70;;;1.60;99.90;;;;;;4987323;28;20407;-71
2023/02/26 04:28:22;;;;;;;7.00;3.10;;;1.60;99.90;;;;;;4988018;28;20502;-73
2023/02/26 04:30:48;;;;;;;6.37;3.10;;;1.40;99.90;;;;;;4987478;28;20181;-71
2023/02/26 04:33:15;;;;;;;4.73;3.23;;;1.30;99.90;;;;;;4987549;28;20206;-70
2023/02/26 04:35:41;;;;;;;3.83;2.87;;;1.40;99.90;;;;;;4988020;28;20176;-71
2023/02/26 04:38:06;;;;;;;5.17;2.90;;;1.50;99.90;;;;;;4987415;28;20459;-71
2023/02/26 04:40:32;;;;;;;5.70;4.37;;;1.40;99.90;;;;;;4987056;28;20557;-71
2023/02/26 04:42:58;;;;;;;10.23;5.30;;;1.40;99.90;;;;;;4987004;28;20958;-72
2023/02/26 04:45:23;;;;;;;4.40;3.27;;;1.30;99.90;;;;;;4987526;28;20183;-74
2023/02/26 04:47:49;;;;;;;5.47;3.80;;;1.30;99.90;;;;;;4987339;28;20188;-69
2023/02/26 04:50:14;;;;;;;4.90;3.87;;;1.30;99.90;;;;;;4987029;28;20181;-71
2023/02/26 04:52:40;;;;;;;3.00;2.57;;;1.30;99.90;;;;;;4979033;28;20187;-74
2023/02/26 04:55:06;;;;;;;5.97;3.40;;;1.10;99.90;;;;;;4987085;28;20793;-72
2023/02/26 04:57:32;;;;;;;4.10;2.67;;;1.10;99.90;;;;;;4986933;28;20187;-72
2023/02/26 04:59:58;;;;;;;4.57;3.77;;;1.00;99.90;;;;;;4987277;28;20832;-70
2023/02/26 05:02:23;;;;;;;3.57;3.00;;;0.90;99.90;;;;;;4986905;28;20416;-72
2023/02/26 05:04:49;;;;;;;5.57;3.33;;;0.90;99.90;;;;;;4986840;28;20687;-69
2023/02/26 05:07:14;;;;;;;3.33;3.10;;;0.90;99.90;;;;;;4987052;28;20184;-71
2023/02/26 05:09:40;;;;;;;4.10;3.30;;;0.60;99.90;;;;;;4986858;28;20322;-75
2023/02/26 05:12:06;;;;;;;5.50;4.93;;;0.60;99.90;;;;;;4986543;28;20181;-71
2023/02/26 05:14:31;;;;;;;7.27;2.90;;;0.80;99.90;;;;;;4986653;28;20200;-71
2023/02/26 05:16:57;;;;;;;3.33;2.97;;;0.90;99.90;;;;;;4986680;28;20174;-70
2023/02/26 05:19:23;;;;;;;7.00;3.80;;;0.90;99.90;;;;;;4986543;28;20203;-71
2023/02/26 05:21:48;;;;;;;3.80;3.00;;;1.00;99.90;;;;;;4986715;28;20176;-72
2023/02/26 05:24:14;;;;;;;4.10;3.10;;;1.00;99.90;;;;;;4986571;28;20444;-75
2023/02/26 05:26:40;;;;;;;3.20;2.90;;;1.00;99.90;;;;;;4986454;28;20267;-72
2023/02/26 05:29:06;;;;;;;3.63;3.33;;;1.10;99.90;;;;;;4986646;28;21058;-73
2023/02/26 05:31:32;;;;;;;4.53;2.80;;;1.10;99.90;;;;;;4986497;28;20535;-76
2023/02/26 05:33:57;;;;;;;4.60;2.90;;;1.10;99.90;;;;;;4986603;28;20832;-71
2023/02/26 05:36:23;;;;;;;4.60;2.93;;;1.00;99.90;;;;;;4985734;28;20429;-70
2023/02/26 05:38:48;;;;;;;4.00;3.13;;;0.80;99.90;;;;;;4986385;28;20236;-71
2023/02/26 05:41:14;;;;;;;2.83;2.63;;;0.80;99.90;;;;;;4980225;28;20183;-75
2023/02/26 05:43:40;;;;;;;3.80;3.20;;;0.80;99.90;;;;;;4986764;28;20219;-70
2023/02/26 05:46:06;;;;;;;4.33;3.00;;;0.50;99.90;;;;;;4973835;28;20709;-69
2023/02/26 05:48:32;;;;;;;3.27;2.97;;;0.50;99.90;;;;;;4986337;28;20411;-71
2023/02/26 05:50:57;;;;;;;5.73;3.47;;;0.70;99.90;;;;;;4985933;28;20180;-71
2023/02/26 05:53:23;;;;;;;10.30;3.20;;;0.80;99.90;;;;;;4986725;28;20207;-75
2023/02/26 05:55:49;;;;;;;5.07;3.00;;;0.90;99.90;;;;;;4975838;28;20559;-71
2023/02/26 05:58:15;;;;;;;3.77;2.90;;;1.00;99.90;;;;;;4984418;28;20615;-70
2023/02/26 06:00:41;;;;;;;6.20;3.73;;;1.00;99.90;;;;;;4985804;28;20547;-71
2023/02/26 06:03:06;;;;;;;3.93;3.37;;;0.90;99.90;;;;;;4985761;28;20437;-71
2023/02/26 06:05:32;;;;;;;6.47;3.80;;;0.80;99.90;;;;;;4968280;28;20964;-71
2023/02/26 06:07:58;;;;;;;4.27;3.03;;;0.70;99.90;;;;;;4977823;28;20753;-71
2023/02/26 06:10:23;;;;;;;4.73;3.13;;;0.80;99.90;;;;;;4985678;28;20202;-71
2023/02/26 06:12:49;;;;;;;3.90;3.50;;;0.70;99.90;;;;;;4985537;28;20187;-70
2023/02/26 06:15:15;;;;;;;4.90;3.03;;;0.50;99.90;;;;;;4985213;28;20169;-71
2023/02/26 06:17:40;;;;;;;5.10;3.80;;;0.50;99.90;;;;;;4985175;28;20502;-71
2023/02/26 06:20:07;;;;;;;6.43;3.33;;;0.50;99.90;;;;;;4985312;28;20262;-71
2023/02/26 06:22:32;;;;;;;4.20;3.10;;;0.50;99.90;;;;;;4985082;28;20569;-71
2023/02/26 06:24:59;;;;;;;7.03;3.67;;;0.40;99.90;;;;;;4985377;28;20442;-69
2023/02/26 06:27:24;;;;;;;4.40;3.70;;;0.50;99.90;;;;;;4968950;28;20311;-71
2023/02/26 06:29:50;;;;;;;5.17;3.50;;;0.60;99.90;;;;;;4984902;28;20926;-76
2023/02/26 06:32:15;;;;;;;4.00;3.63;;;0.70;99.90;;;;;;4984708;28;20221;-70
2023/02/26 06:34:41;;;;;;;4.93;3.40;;;0.70;99.90;;;;;;4985039;28;20477;-71
2023/02/26 06:37:07;;;;;;;3.80;3.17;;;0.80;99.90;;;;;;4985434;28;20181;-71
2023/02/26 06:39:32;;;;;;;6.40;3.70;;;1.00;99.90;;;;;;4979787;28;20637;-69
2023/02/26 06:41:58;;;;;;;3.40;3.10;;;0.90;99.90;;;;;;4985381;28;20279;-71
2023/02/26 06:44:23;;;;;;;4.77;3.33;;;0.70;99.90;;;;;;4984586;28;20207;-70
2023/02/26 06:46:49;;;;;;;5.80;4.30;;;0.60;99.90;;;;;;4984383;28;20681;-70
2023/02/26 06:49:15;;;;;;;3.60;3.30;;;0.80;99.90;;;;;;4984602;28;20688;-75
2023/02/26 06:51:40;;;;;;;3.47;3.17;;;0.60;99.90;;;;;;4984940;28;20226;-74
2023/02/26 06:54:07;;;;;;;8.67;7.40;;;0.50;99.90;;;;;;4977883;28;20317;-70
2023/02/26 06:56:33;;;;;;;5.13;4.63;;;0.50;99.90;;;;;;4984899;28;20682;-71
2023/02/26 06:58:58;;;;;;;8.30;3.60;;;0.70;99.90;;;;;;4984933;28;20197;-71
2023/02/26 07:01:24;;;;;;;5.23;3.50;;;0.70;99.90;;;;;;4984537;28;20194;-77
2023/02/26 07:03:50;;;;;;;8.57;6.20;;;0.90;99.90;;;;;;4984726;28;20208;-69
2023/02/26 07:06:16;;;;;;;9.77;5.27;;;0.90;99.90;;;;;;4984420;28;20176;-73
2023/02/26 07:08:41;;;;;;;5.03;3.33;;;1.00;99.90;;;;;;4984844;28;20192;-73
2023/02/26 07:11:08;;;;;;;7.93;4.90;;;0.70;99.90;;;;;;4973081;28;20436;-69
2023/02/26 07:13:37;;;;;;;19.27;13.77;;;0.40;99.90;;;;;;4983966;28;20316;-78
2023/02/26 07:16:06;;;;;;;5.10;3.93;;;0.30;99.90;;;;;;4984786;28;20419;-72
2023/02/26 07:18:35;;;;;;;4.43;4.03;;;0.30;99.90;;;;;;4984900;28;20419;-71
2023/02/26 07:21:04;;;;;;;6.73;5.30;;;0.30;99.90;;;;;;4984969;28;20447;-71
2023/02/26 07:23:29;;;;;;;10.37;7.87;;;0.40;99.90;;;;;;4984608;28;21053;-74
2023/02/26 07:25:55;;;;;;;6.47;3.50;;;0.70;99.90;;;;;;4984171;28;20485;-76
2023/02/26 07:28:22;;;;;;;11.93;5.33;;;0.60;99.90;;;;;;4982551;28;20184;-70
2023/02/26 07:30:47;;;;;;;4.07;2.83;;;0.60;99.90;;;;;;4983957;28;20186;-72
2023/02/26 07:33:13;;;;;;;6.67;3.53;;;0.60;99.90;;;;;;4982129;28;20427;-69
2023/02/26 07:35:39;;;;;;;3.40;3.10;;;0.80;99.90;;;;;;4974570;28;20177;-71
2023/02/26 07:38:04;;;;;;;41.33;24.37;;;0.90;99.90;;;;;;4984215;28;20227;-73
2023/02/26 07:40:30;;;;;;;8.73;4.83;;;1.10;99.90;;;;;;4983943;28;20208;-69
2023/02/26 07:42:55;;;;;;;5.00;4.10;;;1.50;99.90;;;;;;4984248;28;20306;-71
2023/02/26 07:45:21;;;;;;;10.50;6.60;;;1.30;99.90;;;;;;4983998;28;20173;-71
2023/02/26 07:47:48;;;;;;;15.70;9.77;;;1.30;99.90;;;;;;4984433;28;20663;-72
2023/02/26 07:50:14;;;;;;;9.67;6.53;;;1.40;99.90;;;;;;4984767;28;20176;-69
2023/02/26 07:52:40;;;;;;;4.50;2.90;;;1.40;99.90;;;;;;4984626;28;20478;-78
2023/02/26 07:55:08;;;;;;;3.30;3.00;;;1.30;99.90;;;;;;4983396;28;20283;-71
2023/02/26 07:57:33;;;;;;;5.47;3.90;;;1.20;99.90;;;;;;4984189;28;20426;-72
2023/02/26 07:59:59;;;;;;;5.40;4.90;;;0.80;99.90;;;;;;4983718;28;20960;-78
2023/02/26 08:02:24;;;;;;;10.10;8.00;;;0.90;99.90;;;;;;4984565;28;20753;-71
2023/02/26 08:04:50;;;;;;;4.83;3.53;;;1.10;99.90;;;;;;4984582;28;20201;-74
2023/02/26 08:07:16;;;;;;;4.20;2.70;;;1.20;99.90;;;;;;4984134;28;20263;-69
2023/02/26 08:09:41;;;;;;;7.83;6.67;;;1.30;99.90;;;;;;4983899;28;20503;-76
2023/02/26 08:12:07;;;;;;;4.10;2.97;;;1.00;99.90;;;;;;4984249;28;20562;-71
2023/02/26 08:14:33;;;;;;;6.00;5.07;;;1.10;99.90;;;;;;4973060;28;20629;-72
2023/02/26 08:16:58;;;;;;;6.17;3.13;;;1.30;99.90;;;;;;4984226;28;20193;-71
2023/02/26 08:19:24;;;;;;;3.67;3.37;;;1.50;99.90;;;;;;4983718;28;20239;-71
2023/02/26 08:21:49;;;;;;;2.97;2.60;;;1.70;99.90;;;;;;4983997;28;20710;-74
2023/02/26 08:24:15;;;;;;;5.27;3.90;;;1.50;99.90;;;;;;4983527;28;20254;-71
2023/02/26 08:26:41;;;;;;;4.47;2.87;;;1.50;99.90;;;;;;4983070;28;20248;-71
2023/02/26 08:29:07;;;;;;;6.50;3.50;;;1.30;99.90;;;;;;4983436;28;20184;-71
2023/02/26 08:31:34;;;;;;;6.47;2.73;;;1.30;99.90;;;;;;4983481;28;20613;-71
2023/02/26 08:34:00;;;;;;;5.43;3.00;;;1.60;99.90;;;;;;4983995;28;20205;-70
2023/02/26 08:36:26;;;;;;;3.20;2.90;;;1.50;99.90;;;;;;4966587;28;20825;-71
2023/02/26 08:38:51;;;;;;;3.47;3.17;;;1.30;99.90;;;;;;4983690;28;20855;-75
2023/02/26 08:41:17;;;;;;;3.43;3.00;;;1.40;99.90;;;;;;4983943;28;20184;-71
2023/02/26 08:43:43;;;;;;;6.30;3.20;;;1.80;99.90;;;;;;4983849;28;20216;-71
2023/02/26 08:46:09;;;;;;;2.70;2.40;;;1.80;99.90;;;;;;4976751;28;20189;-71
2023/02/26 08:48:34;;;;;;;4.00;2.77;;;1.80;99.90;;;;;;4977334;28;20849;-70
2023/02/26 08:51:00;;;;;;;5.87;3.03;;;1.40;99.90;;;;;;4983515;28;20556;-72
2023/02/26 08:53:25;;;;;;;11.73;5.70;;;1.20;99.90;;;;;;4983725;28;20560;-77
2023/02/26 08:55:52;;;;;;;6.17;4.53;;;1.30;99.90;;;;;;4983826;28;20211;-71
2023/02/26 08:58:18;;;;;;;7.83;4.00;;;1.30;99.90;;;;;;4983442;28;20196;-76
2023/02/26 09:00:44;;;;;;;8.93;4.13;;;1.40;99.90;;;;;;4983323;28;20462;-73
2023/02/26 09:03:10;;;;;;;3.27;2.73;;;1.50;99.90;;;;;;4982900;28;20439;-70
2023/02/26 09:05:35;;;;;;;7.00;3.17;;;1.30;99.90;;;;;;4983306;28;20218;-71
2023/02/26 09:08:01;;;;;;;4.30;3.23;;;1.20;99.90;;;;;;4983476;28;20269;-71
2023/02/26 09:10:27;;;;;;;6.33;3.10;;;1.10;99.90;;;;;;4977279;28;20279;-71
2023/02/26 09:12:52;;;;;;;3.10;2.60;;;1.00;99.90;;;;;;5003356;23;20274;-74
2023/02/26 09:15:18;;;;;;;4.40;2.60;;;1.00;99.90;;;;;;4984029;28;20189;-76
2023/02/26 09:17:44;;;;;;;4.77;2.70;;;1.20;99.90;;;;;;4988625;28;20173;-74
2023/02/26 09:20:11;;;;;;;3.17;2.87;;;1.40;99.90;;;;;;4988821;28;20521;-75
2023/02/26 09:22:36;;;;;;;3.50;2.60;;;1.50;99.90;;;;;;4989182;28;20200;-75
2023/02/26 09:25:03;;;;;;;4.73;2.77;;;1.70;99.90;;;;;;4988452;28;20423;-76
2023/02/26 09:27:29;;;;;;;5.20;2.97;;;1.60;99.90;;;;;;4988968;28;20174;-75
2023/02/26 09:29:54;;;;;;;3.30;2.63;;;1.60;99.90;;;;;;4981839;28;21034;-75
2023/02/26 09:32:20;;;;;;;4.00;2.40;;;1.90;99.90;;;;;;4987622;28;20212;-77
2023/02/26 09:34:45;;;;;;;3.00;2.43;;;1.80;99.90;;;;;;4987181;28;20172;-75
2023/02/26 09:37:11;;;;;;;3.20;2.33;;;1.60;99.90;;;;;;4987177;28;20185;-74
2023/02/26 09:39:37;;;;;;;3.80;2.23;;;1.80;99.90;;;;;;4987382;28;20259;-75
2023/02/26 09:42:19;;;;;;;2.20;1.83;;;1.80;99.90;;;;;;4969464;28;20177;-74
2023/02/26 09:44:47;;;;;;;3.30;2.30;;;1.80;99.90;;;;;;4986634;28;20173;-75
2023/02/26 09:47:38;;;;;;;2.23;2.03;;;1.70;99.90;;;;;;4987247;28;20416;-73
2023/02/26 09:50:25;;;;;;;4.50;2.10;;;1.90;99.90;;;;;;4976834;28;20420;-75
2023/02/26 09:53:02;;;;;;;4.67;3.40;;;1.70;99.90;;;;;;4987029;28;21214;-74
2023/02/26 09:55:38;;;;;;;4.37;2.30;;;1.50;99.90;;;;;;4986750;28;20418;-75
2023/02/26 09:58:27;;;;;;;3.00;2.80;;;1.40;99.90;;;;;;4974640;28;20436;-74
2023/02/26 10:01:11;;;;;;;5.93;4.20;;;1.60;99.90;;;;;;4975300;28;20950;-74
2023/02/26 10:03:54;;;;;;;3.23;2.47;;;1.40;99.90;;;;;;4981118;28;20466;-73
2023/02/26 10:06:34;;;;;;;2.37;2.17;;;1.40;99.90;;;;;;4988147;28;20477;-74
2023/02/26 10:09:19;;;;;;;3.63;2.60;;;1.40;99.90;;;;;;4976792;28;20419;-75
2023/02/26 10:12:18;;;;;;;2.53;2.33;;;1.60;99.90;;;;;;4986820;28;20412;-73
2023/02/26 10:14:48;;;;;;;3.93;2.93;;;1.50;99.90;;;;;;4987049;28;20769;-73
2023/02/26 10:17:24;;;;;;;4.60;2.57;;;1.80;99.90;;;;;;4986645;28;20507;-72
2023/02/26 10:19:58;;;;;;;6.07;3.40;;;1.60;99.90;;;;;;4986552;28;21051;-75
2023/02/26 10:22:28;;;;;;;4.13;2.67;;;1.70;99.90;;;;;;4985765;28;20534;-73
2023/02/26 10:25:04;;;;;;;4.00;2.90;;;1.80;99.90;;;;;;4985256;28;20926;-72
2023/02/26 10:28:06;;;;;;;5.60;2.67;;;1.90;99.90;;;;;;4976542;28;20427;-73
2023/02/26 10:30:52;;;;;;;5.03;2.80;;;1.70;99.90;;;;;;4986476;28;20415;-74
2023/02/26 10:33:32;;;;;;;3.60;3.27;;;1.60;99.90;;;;;;4981549;28;20830;-72
2023/02/26 10:36:07;;;;;;;3.70;3.20;;;1.60;99.90;;;;;;4985453;28;20902;-72
2023/02/26 10:38:32;;;;;;;3.50;2.30;;;1.50;99.90;;;;;;4986617;28;20415;-74
2023/02/26 10:41:01;;;;;;;3.03;2.73;;;1.60;99.90;;;;;;4977406;28;20435;-72
2023/02/26 10:44:04;;;;;;;2.37;2.20;;;1.70;99.90;;;;;;4986327;28;20207;-75
2023/02/26 10:47:10;;;;;;;2.30;2.10;;;1.60;99.90;;;;;;4966946;28;20431;-74
2023/02/26 10:49:46;;;;;;;2.10;1.90;;;1.60;99.90;;;;;;4987153;28;20783;-74
2023/02/26 10:52:18;;;;;;;4.80;2.63;;;1.60;99.90;;;;;;4986999;28;20416;-74
2023/02/26 10:55:16;;;;;;;2.73;2.50;;;1.70;99.90;;;;;;4986771;28;20716;-74
2023/02/26 10:57:49;;;;;;;3.03;2.50;;;1.80;99.90;;;;;;4979640;28;20443;-73
2023/02/26 11:00:18;;;;;;;3.40;2.80;;;2.10;99.90;;;;;;4986297;28;20974;-73
2023/02/26 11:02:47;;;;;;;3.53;2.40;;;2.10;99.90;;;;;;4985752;28;20428;-74
2023/02/26 11:05:22;;;;;;;2.90;2.70;;;2.10;99.90;;;;;;4974801;28;20478;-76
2023/02/26 11:07:56;;;;;;;2.70;2.20;;;2.10;99.90;;;;;;4986521;28;20411;-75
2023/02/26 11:10:32;;;;;;;2.37;2.17;;;2.10;99.90;;;;;;4986372;28;20439;-74
2023/02/26 11:12:57;;;;;;;3.50;1.90;;;2.00;99.90;;;;;;4986612;28;20562;-74
2023/02/26 11:15:26;;;;;;;4.00;2.70;;;2.10;99.90;;;;;;4986262;28;20510;-73
2023/02/26 11:17:57;;;;;;;2.40;2.00;;;2.40;99.90;;;;;;4986029;28;20208;-73
2023/02/26 11:20:39;;;;;;;3.60;2.13;;;2.40;99.90;;;;;;4985448;28;20843;-74
2023/02/26 11:23:11;;;;;;;6.40;4.20;;;2.30;99.90;;;;;;4985762;28;20443;-74
2023/02/26 11:25:37;;;;;;;2.53;2.33;;;2.40;99.90;;;;;;4985657;28;20408;-74
2023/02/26 11:28:06;;;;;;;2.63;2.43;;;2.50;99.90;;;;;;4985521;28;20420;-74
2023/02/26 11:30:36;;;;;;;4.43;3.03;;;2.50;99.90;;;;;;4985446;28;20454;-74
2023/02/26 11:33:17;;;;;;;6.13;3.80;;;2.60;99.90;;;;;;4984498;28;20443;-74
2023/02/26 11:35:43;;;;;;;2.67;2.30;;;2.70;99.90;;;;;;4984885;28;20427;-73
2023/02/26 11:38:17;;;;;;;4.63;2.80;;;2.80;99.90;;;;;;4984821;28;20437;-73
2023/02/26 11:40:46;;;;;;;2.60;2.40;;;2.70;99.90;;;;;;4984570;28;20824;-74
2023/02/26 11:43:17;;;;;;;4.63;3.17;;;2.50;99.90;;;;;;4984883;28;20432;-74
2023/02/26 11:45:46;;;;;;;4.37;2.30;;;2.30;99.90;;;;;;4972868;28;20426;-73
2023/02/26 11:48:17;;;;;;;2.20;2.00;;;2.20;99.90;;;;;;4984892;28;21642;-76
2023/02/26 11:50:51;;;;;;;4.63;2.10;;;2.20;99.90;;;;;;4985032;28;20459;-74
2023/02/26 11:53:22;;;;;;;2.93;2.23;;;2.40;99.90;;;;;;4973132;28;20904;-74
2023/02/26 11:55:52;;;;;;;2.43;1.70;;;2.40;99.90;;;;;;4984797;28;20603;-75
2023/02/26 11:58:22;;;;;;;2.03;1.80;;;2.40;99.90;;;;;;4984943;28;20415;-72
2023/02/26 12:00:50;;;;;;;2.07;1.73;;;2.50;99.90;;;;;;4985559;28;20489;-73
2023/02/26 12:03:22;;;;;;;2.00;1.80;;;2.50;99.90;;;;;;4984725;28;20507;-74
2023/02/26 12:05:49;;;;;;;2.93;2.30;;;2.50;99.90;;;;;;4984521;28;20416;-72
2023/02/26 12:08:38;;;;;;;3.10;1.60;;;2.70;99.90;;;;;;4984689;28;20419;-75
2023/02/26 12:11:22;;;;;;;2.97;2.27;;;2.30;99.90;;;;;;4984589;28;20676;-73
2023/02/26 12:14:13;;;;;;;3.33;1.87;;;2.20;99.90;;;;;;4984587;28;20881;-73
2023/02/26 12:16:54;;;;;;;2.20;2.00;;;2.30;99.90;;;;;;4973446;28;20494;-73
2023/02/26 12:19:45;;;;;;;3.13;2.17;;;2.30;99.90;;;;;;4984584;28;20479;-73
2023/02/26 12:22:33;;;;;;;2.60;1.50;;;2.40;99.90;;;;;;4984088;28;20762;-72
2023/02/26 12:25:03;;;;;;;2.30;1.83;;;2.40;99.90;;;;;;4989685;28;20463;-73
2023/02/26 12:27:40;;;;;;;2.10;1.90;;;2.50;99.90;;;;;;4984524;28;20428;-74
2023/02/26 12:30:25;;;;;;;3.60;2.40;;;2.50;99.90;;;;;;4973653;28;20437;-71
2023/02/26 12:33:07;;;;;;;2.40;2.20;;;2.50;99.90;;;;;;4984091;28;20526;-72
2023/02/26 12:35:55;;;;;;;2.63;2.43;;;2.40;99.90;;;;;;4984438;28;20419;-70
2023/02/26 12:38:34;;;;;;;1.90;1.73;;;2.60;99.90;;;;;;4985054;28;20423;-71
2023/02/26 12:41:08;;;;;;;2.67;2.40;;;2.40;99.90;;;;;;4983922;28;20783;-71
2023/02/26 12:43:55;;;;;;;2.37;2.17;;;2.30;99.90;;;;;;4985776;28;20439;-76
2023/02/26 12:46:46;;;;;;;1.97;1.87;;;2.50;99.90;;;;;;4988952;28;20411;-73
2023/02/26 12:49:41;;;;;;;2.33;2.13;;;2.50;99.90;;;;;;4982995;28;20430;-73
2023/02/26 12:52:21;;;;;;;2.80;1.90;;;2.70;99.90;;;;;;4987582;28;20998;-73
2023/02/26 12:55:31;;;;;;;2.37;1.93;;;2.80;99.90;;;;;;4988125;28;20419;-73
2023/02/26 12:58:18;;;;;;;2.60;1.80;;;2.90;99.90;;;;;;4950190;28;20416;-72
2023/02/26 13:01:20;;;;;;;2.10;1.90;;;3.10;99.90;;;;;;4987689;28;20979;-73
2023/02/26 13:04:06;;;;;;;2.30;2.10;;;3.00;99.90;;;;;;4982188;28;20455;-72
2023/02/26 13:06:53;;;;;;;2.40;2.00;;;3.00;99.90;;;;;;4986875;28;20439;-71
2023/02/26 13:09:31;;;;;;;2.30;2.10;;;3.10;99.90;;;;;;4971462;28;20432;-72
2023/02/26 13:12:17;;;;;;;2.43;1.80;;;3.10;99.90;;;;;;4986990;28;20415;-72
2023/02/26 13:15:24;;;;;;;3.43;1.80;;;3.10;99.90;;;;;;4987697;28;21009;-73
2023/02/26 13:18:24;;;;;;;1.93;1.70;;;3.00;99.90;;;;;;4987528;28;20930;-73
2023/02/26 13:21:17;;;;;;;2.63;1.77;;;2.80;99.90;;;;;;4987051;28;20443;-70